createdAt,value
2019-03-18T00:00:02.021Z,48.83
2019-03-18T00:02:32.139Z,46.63
2019-03-18T00:05:00.345Z,48.38
2019-03-18T00:07:28.382Z,49.65
2019-03-18T00:09:56.247Z,49.77
2019-03-18T00:12:24.324Z,51.23
2019-03-18T00:15:01.262Z,52.23
2019-03-18T00:17:21.899Z,53.30
2019-03-18T00:19:49.864Z,53.68
2019-03-18T00:22:17.670Z,49.85
2019-03-18T00:24:45.499Z,49.33
2019-03-18T00:27:13.261Z,48.02
2019-03-18T00:29:41.027Z,48.63
2019-03-18T00:32:08.888Z,47.95
2019-03-18T00:34:36.657Z,47.58
2019-03-18T00:37:04.518Z,49.10
2019-03-18T00:39:32.384Z,49.25
2019-03-18T00:42:00.258Z,49.48
2019-03-18T00:44:28.013Z,49.48
2019-03-18T00:46:55.780Z,50.12
2019-03-18T00:49:23.537Z,52.33
2019-03-18T00:51:51.508Z,55.90
2019-03-18T00:54:19.888Z,53.98
2019-03-18T00:56:47.958Z,54.63
2019-03-18T00:59:15.723Z,57.10
2019-03-18T01:01:44.203Z,57.93
2019-03-18T01:04:11.866Z,59.45
2019-03-18T01:06:39.730Z,62.38
2019-03-18T01:09:07.596Z,60.88
2019-03-18T01:11:35.362Z,60.67
2019-03-18T01:14:03.119Z,61.55
2019-03-18T01:16:30.886Z,59.20
2019-03-18T01:18:58.650Z,60.55
2019-03-18T01:21:26.413Z,54.88
2019-03-18T01:23:54.176Z,56.95
2019-03-18T01:26:21.947Z,56.60
2019-03-18T01:28:49.881Z,56.42
2019-03-18T01:31:17.672Z,56.15
2019-03-18T01:33:45.435Z,52.03
2019-03-18T01:36:13.302Z,55.58
2019-03-18T01:38:41.177Z,55.60
2019-03-18T01:41:08.933Z,59.08
2019-03-18T01:43:36.802Z,62.27
2019-03-18T01:46:04.568Z,63.28
2019-03-18T01:48:32.530Z,60.38
2019-03-18T01:51:00.398Z,61.30
2019-03-18T01:53:28.673Z,60.95
2019-03-18T01:55:56.450Z,62.58
2019-03-18T01:58:24.197Z,60.52
2019-03-18T02:00:52.580Z,60.67
2019-03-18T02:03:20.240Z,61.18
2019-03-18T02:05:48.205Z,59.00
2019-03-18T02:08:16.076Z,59.53
2019-03-18T02:10:43.843Z,60.15
2019-03-18T02:13:11.803Z,60.92
2019-03-18T02:15:39.574Z,60.40
2019-03-18T02:18:07.329Z,52.98
2019-03-18T02:20:35.303Z,58.85
2019-03-18T02:23:03.068Z,58.55
2019-03-18T02:25:30.843Z,56.65
2019-03-18T02:27:58.598Z,55.40
2019-03-18T02:30:26.359Z,54.35
2019-03-18T02:32:54.120Z,53.10
2019-03-18T02:35:22.097Z,55.12
2019-03-18T02:37:49.969Z,52.38
2019-03-18T02:40:17.724Z,53.90
2019-03-18T02:42:45.482Z,52.75
2019-03-18T02:45:13.250Z,57.73
2019-03-18T02:47:41.027Z,56.45
2019-03-18T02:50:08.672Z,58.83
2019-03-18T02:52:37.156Z,58.10
2019-03-18T02:55:06.144Z,58.35
2019-03-18T02:57:33.813Z,56.33
2019-03-18T03:00:01.689Z,57.38
2019-03-18T03:02:30.780Z,59.88
2019-03-18T03:04:58.738Z,58.45
2019-03-18T03:07:26.508Z,64.92
2019-03-18T03:09:54.271Z,58.85
2019-03-18T03:12:22.028Z,59.77
2019-03-18T03:14:49.790Z,65.00
2019-03-18T03:17:21.419Z,61.00
2019-03-18T03:19:47.260Z,63.83
2019-03-18T03:22:15.027Z,61.63
2019-03-18T03:24:42.804Z,62.08
2019-03-18T03:27:10.557Z,59.88
2019-03-18T03:29:38.228Z,60.43
2019-03-18T03:32:05.986Z,59.60
2019-03-18T03:34:33.770Z,58.73
2019-03-18T03:37:01.714Z,58.25
2019-03-18T03:39:29.680Z,56.40
2019-03-18T03:41:57.455Z,55.00
2019-03-18T03:44:25.107Z,56.18
2019-03-18T03:46:52.866Z,56.25
2019-03-18T03:49:20.636Z,56.23
2019-03-18T03:51:48.504Z,59.27
2019-03-18T03:54:17.191Z,60.10
2019-03-18T03:56:44.738Z,62.33
2019-03-18T03:59:12.513Z,64.92
2019-03-18T04:01:41.603Z,65.37
2019-03-18T04:04:09.371Z,64.58
2019-03-18T04:06:37.336Z,62.48
2019-03-18T04:09:05.308Z,61.73
2019-03-18T04:11:33.281Z,58.48
2019-03-18T04:14:01.645Z,56.08
2019-03-18T04:16:29.616Z,56.42
2019-03-18T04:18:57.389Z,59.13
2019-03-18T04:21:25.363Z,57.50
2019-03-18T04:23:53.216Z,59.83
2019-03-18T04:26:21.289Z,57.20
2019-03-18T04:28:49.157Z,55.15
2019-03-18T04:31:17.225Z,59.95
2019-03-18T04:33:45.195Z,63.38
2019-03-18T04:36:13.265Z,63.73
2019-03-18T04:38:42.258Z,64.15
2019-03-18T04:41:10.224Z,61.37
2019-03-18T04:43:38.192Z,60.40
2019-03-18T04:46:06.669Z,61.48
2019-03-18T04:48:34.848Z,62.15
2019-03-18T04:51:02.823Z,61.18
2019-03-18T04:53:31.095Z,58.78
2019-03-18T04:55:59.057Z,59.95
2019-03-18T04:58:28.164Z,59.90
2019-03-18T05:00:56.430Z,57.40
2019-03-18T05:03:24.714Z,53.70
2019-03-18T05:05:52.674Z,55.30
2019-03-18T05:08:20.643Z,57.95
2019-03-18T05:10:48.613Z,56.18
2019-03-18T05:13:16.679Z,55.73
2019-03-18T05:15:44.752Z,65.32
2019-03-18T05:18:13.456Z,57.70
2019-03-18T05:20:41.510Z,59.70
2019-03-18T05:23:09.479Z,68.67
2019-03-18T05:25:37.562Z,67.17
2019-03-18T05:28:05.725Z,63.83
2019-03-18T05:30:33.797Z,61.15
2019-03-18T05:33:01.861Z,60.20
2019-03-18T05:35:29.933Z,61.77
2019-03-18T05:37:57.902Z,62.03
2019-03-18T05:40:25.975Z,65.37
2019-03-18T05:42:53.937Z,61.10
2019-03-18T05:45:21.916Z,64.42
2019-03-18T05:47:49.980Z,64.17
2019-03-18T05:50:17.952Z,64.40
2019-03-18T05:52:46.029Z,60.43
2019-03-18T05:55:14.397Z,57.67
2019-03-18T05:57:42.117Z,54.10
2019-03-18T06:00:11.357Z,56.00
2019-03-18T06:02:39.535Z,57.45
2019-03-18T06:05:07.303Z,54.30
2019-03-18T06:07:36.303Z,56.20
2019-03-18T06:10:07.232Z,53.33
2019-03-18T06:12:35.300Z,55.30
2019-03-18T06:15:06.463Z,61.40
2019-03-18T06:17:34.010Z,52.43
2019-03-18T06:20:03.314Z,40.48
2019-03-18T06:22:30.755Z,33.98
2019-03-18T06:24:58.725Z,32.48
2019-03-18T06:27:26.589Z,31.12
2019-03-18T06:29:54.557Z,30.88
2019-03-18T06:32:22.531Z,28.70
2019-03-18T06:34:50.392Z,32.98
2019-03-18T06:37:18.572Z,32.85
2019-03-18T06:39:46.638Z,33.88
2019-03-18T06:42:14.613Z,33.53
2019-03-18T06:44:42.576Z,30.52
2019-03-18T06:47:10.598Z,32.73
2019-03-18T06:49:38.612Z,34.92
2019-03-18T06:52:06.687Z,38.38
2019-03-18T06:54:34.962Z,30.75
2019-03-18T06:57:03.853Z,27.42
2019-03-18T06:59:32.131Z,28.70
2019-03-18T07:02:00.198Z,28.15
2019-03-18T07:04:27.758Z,30.00
2019-03-18T07:06:55.736Z,28.70
2019-03-18T07:09:23.692Z,30.23
2019-03-18T07:11:51.660Z,29.07
2019-03-18T07:14:19.631Z,27.75
2019-03-18T07:16:47.599Z,28.98
2019-03-18T07:19:15.568Z,29.50
2019-03-18T07:21:43.558Z,28.10
2019-03-18T07:24:11.506Z,28.75
2019-03-18T07:26:39.577Z,30.52
2019-03-18T07:29:07.339Z,27.70
2019-03-18T07:31:35.411Z,27.40
2019-03-18T07:34:03.390Z,27.00
2019-03-18T07:36:31.348Z,28.15
2019-03-18T07:38:59.313Z,28.32
2019-03-18T07:41:27.210Z,28.23
2019-03-18T07:43:55.252Z,26.52
2019-03-18T07:46:23.223Z,27.98
2019-03-18T07:48:51.188Z,28.10
2019-03-18T07:51:19.059Z,26.57
2019-03-18T07:53:47.850Z,29.72
2019-03-18T07:56:15.404Z,27.93
2019-03-18T07:58:43.478Z,43.50
2019-03-18T08:01:11.867Z,27.10
2019-03-18T08:03:41.566Z,27.37
2019-03-18T08:06:09.528Z,32.65
2019-03-18T08:08:37.612Z,32.15
2019-03-18T08:11:05.568Z,32.65
2019-03-18T08:13:33.534Z,32.60
2019-03-18T08:16:01.403Z,34.13
2019-03-18T08:18:29.779Z,32.38
2019-03-18T08:20:57.753Z,33.55
2019-03-18T08:23:25.820Z,34.90
2019-03-18T08:25:53.901Z,32.20
2019-03-18T08:28:22.000Z,28.00
2019-03-18T08:30:49.931Z,30.00
2019-03-18T08:33:17.903Z,31.30
2019-03-18T08:35:46.808Z,28.20
2019-03-18T08:38:14.968Z,26.05
2019-03-18T08:40:42.729Z,25.10
2019-03-18T08:43:10.692Z,23.05
2019-03-18T08:45:38.669Z,24.20
2019-03-18T08:48:06.637Z,21.52
2019-03-18T08:50:34.811Z,21.73
2019-03-18T08:53:03.189Z,21.45
2019-03-18T08:55:31.052Z,21.70
2019-03-18T08:57:59.228Z,21.35
2019-03-18T09:00:27.299Z,19.73
2019-03-18T09:02:56.455Z,21.57
2019-03-18T09:05:24.255Z,21.80
2019-03-18T09:07:52.244Z,20.85
2019-03-18T09:10:20.196Z,21.90
2019-03-18T09:12:48.160Z,21.50
2019-03-18T09:15:16.030Z,23.20
2019-03-18T09:17:45.019Z,21.50
2019-03-18T09:20:14.323Z,23.57
2019-03-18T09:22:42.187Z,22.62
2019-03-18T09:25:10.672Z,20.95
2019-03-18T09:27:39.248Z,21.35
2019-03-18T09:30:16.227Z,19.87
2019-03-18T09:32:43.786Z,16.27
2019-03-18T09:35:11.865Z,17.02
2019-03-18T09:37:40.032Z,18.00
2019-03-18T09:40:11.072Z,22.48
2019-03-18T09:42:38.947Z,15.58
2019-03-18T09:45:09.872Z,15.70
2019-03-18T09:47:37.640Z,18.75
2019-03-18T09:50:07.148Z,16.27
2019-03-18T09:52:34.808Z,13.05
2019-03-18T09:55:05.182Z,12.78
2019-03-18T09:57:33.102Z,9.78
2019-03-18T10:00:00.974Z,9.55
2019-03-18T10:02:29.138Z,9.50
2019-03-18T10:04:57.003Z,7.05
2019-03-18T10:07:25.072Z,8.53
2019-03-18T10:09:53.059Z,6.92
2019-03-18T10:12:21.111Z,7.95
2019-03-18T10:14:49.084Z,6.42
2019-03-18T10:17:17.050Z,6.12
2019-03-18T10:19:45.021Z,9.15
2019-03-18T10:22:12.984Z,7.45
2019-03-18T10:24:40.955Z,7.78
2019-03-18T10:27:09.006Z,8.75
2019-03-18T10:29:36.998Z,10.08
2019-03-18T10:32:05.082Z,7.42
2019-03-18T10:34:33.036Z,8.33
2019-03-18T10:37:01.111Z,10.20
2019-03-18T10:39:29.278Z,7.97
2019-03-18T10:41:57.248Z,8.93
2019-03-18T10:44:25.217Z,8.53
2019-03-18T10:46:53.189Z,8.05
2019-03-18T10:49:21.260Z,10.35
2019-03-18T10:51:49.225Z,11.65
2019-03-18T10:54:29.979Z,9.93
2019-03-18T10:56:48.035Z,9.15
2019-03-18T10:59:16.203Z,9.78
2019-03-18T11:01:44.475Z,9.85
2019-03-18T11:04:12.244Z,11.03
2019-03-18T11:06:40.218Z,9.40
2019-03-18T11:09:08.282Z,9.95
2019-03-18T11:11:36.255Z,10.03
2019-03-18T11:14:04.319Z,9.88
2019-03-18T11:16:32.290Z,9.70
2019-03-18T11:19:00.263Z,10.05
2019-03-18T11:21:28.231Z,11.18
2019-03-18T11:23:56.192Z,10.03
2019-03-18T11:26:24.983Z,10.25
2019-03-18T11:28:52.748Z,9.73
2019-03-18T11:31:20.716Z,10.58
2019-03-18T11:33:48.788Z,10.98
2019-03-18T11:36:16.857Z,9.70
2019-03-18T11:38:44.744Z,9.38
2019-03-18T11:41:12.694Z,9.23
2019-03-18T11:43:40.663Z,10.03
2019-03-18T11:46:10.365Z,8.75
2019-03-18T11:48:38.953Z,7.78
2019-03-18T11:51:07.023Z,12.47
2019-03-18T11:53:35.300Z,9.58
2019-03-18T11:56:03.679Z,8.78
2019-03-18T11:58:31.575Z,8.93
2019-03-18T12:01:00.127Z,8.53
2019-03-18T12:03:28.200Z,10.18
2019-03-18T12:05:56.265Z,8.43
2019-03-18T12:08:24.132Z,6.50
2019-03-18T12:10:52.005Z,6.33
2019-03-18T12:13:20.993Z,7.83
2019-03-18T12:15:48.958Z,7.12
2019-03-18T12:18:17.031Z,8.83
2019-03-18T12:20:44.995Z,7.50
2019-03-18T12:23:13.171Z,7.45
2019-03-18T12:25:41.142Z,6.45
2019-03-18T12:28:09.213Z,8.70
2019-03-18T12:30:37.998Z,6.58
2019-03-18T12:33:06.055Z,9.50
2019-03-18T12:35:34.144Z,9.20
2019-03-18T12:38:02.222Z,7.58
2019-03-18T12:40:29.978Z,8.93
2019-03-18T12:42:58.664Z,10.50
2019-03-18T12:45:26.632Z,7.97
2019-03-18T12:47:55.420Z,7.50
2019-03-18T12:50:55.063Z,8.40
2019-03-18T12:55:24.353Z,6.67
2019-03-18T12:57:52.309Z,7.60
2019-03-18T13:00:29.397Z,7.30
2019-03-18T13:02:57.384Z,9.50
2019-03-18T13:05:26.871Z,7.05
2019-03-18T13:07:54.833Z,7.75
2019-03-18T13:10:23.524Z,9.13
2019-03-18T13:12:51.484Z,8.20
2019-03-18T13:15:19.676Z,25.27
2019-03-18T13:17:47.529Z,9.90
2019-03-18T13:20:20.616Z,8.58
2019-03-18T13:22:48.072Z,10.45
2019-03-18T13:25:16.144Z,10.18
2019-03-18T13:27:44.212Z,12.78
2019-03-18T13:30:16.175Z,10.32
2019-03-18T13:32:44.260Z,10.25
2019-03-18T13:35:12.726Z,15.00
2019-03-18T13:37:42.029Z,10.93
2019-03-18T13:40:14.603Z,10.28
2019-03-18T13:45:20.069Z,10.82
2019-03-18T13:47:47.931Z,10.23
2019-03-18T13:50:19.695Z,11.18
2019-03-18T13:55:15.806Z,11.03
2019-03-18T13:57:43.698Z,10.90
2019-03-18T14:00:19.343Z,13.70
2019-03-18T14:02:47.621Z,11.95
2019-03-18T14:05:16.612Z,12.28
2019-03-18T14:07:44.582Z,10.88
2019-03-18T14:10:15.316Z,11.18
2019-03-18T14:12:43.397Z,10.65
2019-03-18T14:15:13.363Z,10.78
2019-03-18T14:17:40.859Z,11.93
2019-03-18T14:20:11.383Z,12.20
2019-03-18T14:22:39.046Z,12.45
2019-03-18T14:25:08.450Z,11.70
2019-03-18T14:27:36.422Z,11.60
2019-03-18T14:30:10.953Z,13.03
2019-03-18T14:32:38.917Z,10.78
2019-03-18T14:35:07.802Z,10.75
2019-03-18T14:37:35.569Z,11.63
2019-03-18T14:40:10.497Z,9.50
2019-03-18T14:42:38.586Z,9.30
2019-03-18T14:45:19.236Z,10.85
2019-03-18T14:47:47.331Z,10.77
2019-03-18T14:50:16.192Z,10.90
2019-03-18T14:52:44.064Z,9.90
2019-03-18T14:55:14.748Z,10.80
2019-03-18T14:57:42.262Z,9.48
2019-03-18T15:00:17.040Z,9.45
2019-03-18T15:02:45.350Z,11.38
2019-03-18T15:05:14.251Z,10.18
2019-03-18T15:07:41.907Z,9.63
2019-03-18T15:10:11.819Z,13.18
2019-03-18T15:12:40.314Z,11.48
2019-03-18T15:15:12.059Z,11.03
2019-03-18T15:17:40.028Z,12.10
2019-03-18T15:20:12.372Z,12.28
2019-03-18T15:22:39.959Z,11.45
2019-03-18T15:25:13.724Z,13.13
2019-03-18T15:27:41.623Z,10.80
2019-03-18T15:30:12.364Z,11.15
2019-03-18T15:32:39.941Z,13.55
2019-03-18T15:35:09.425Z,10.95
2019-03-18T15:37:37.596Z,13.68
2019-03-18T15:40:11.913Z,10.53
2019-03-18T15:42:39.685Z,11.95
2019-03-18T15:45:10.306Z,11.33
2019-03-18T15:47:38.284Z,11.83
2019-03-18T15:50:13.038Z,13.70
2019-03-18T15:52:41.385Z,12.70
2019-03-18T15:55:09.562Z,12.90
2019-03-18T15:57:37.216Z,14.05
2019-03-18T16:00:11.128Z,13.20
2019-03-18T16:02:39.097Z,15.32
2019-03-18T16:05:07.270Z,15.40
2019-03-18T16:07:35.232Z,17.07
2019-03-18T16:10:06.288Z,16.70
2019-03-18T16:12:33.936Z,14.77
2019-03-18T16:15:01.906Z,15.93
2019-03-18T16:17:30.077Z,15.45
2019-03-18T16:19:58.057Z,15.53
2019-03-18T16:22:26.015Z,15.70
2019-03-18T16:24:54.009Z,15.68
2019-03-18T16:27:22.066Z,15.05
2019-03-18T16:29:50.022Z,12.50
2019-03-18T16:32:17.991Z,14.20
2019-03-18T16:34:45.963Z,12.07
2019-03-18T16:37:14.140Z,13.00
2019-03-18T16:39:42.311Z,14.07
2019-03-18T16:42:09.970Z,12.35
2019-03-18T16:44:38.149Z,12.18
2019-03-18T16:47:06.217Z,13.38
2019-03-18T16:49:34.078Z,14.28
2019-03-18T16:52:02.046Z,15.03
2019-03-18T16:54:30.731Z,16.52
2019-03-18T16:56:58.597Z,19.37
2019-03-18T16:59:26.565Z,25.37
2019-03-18T17:01:54.944Z,27.40
2019-03-18T17:04:23.028Z,33.78
2019-03-18T17:06:51.191Z,42.23
2019-03-18T17:09:19.259Z,40.52
2019-03-18T17:11:47.230Z,30.32
2019-03-18T17:14:15.103Z,27.27
2019-03-18T17:16:43.180Z,40.48
2019-03-18T17:19:11.255Z,39.95
2019-03-18T17:21:39.211Z,37.73
2019-03-18T17:24:07.280Z,37.78
2019-03-18T17:26:35.247Z,33.10
2019-03-18T17:29:03.932Z,32.23
2019-03-18T17:31:33.642Z,28.45
2019-03-18T17:34:01.712Z,22.48
2019-03-18T17:36:30.600Z,26.25
2019-03-18T17:38:58.576Z,24.25
2019-03-18T17:41:26.538Z,21.05
2019-03-18T17:43:54.413Z,20.82
2019-03-18T17:46:22.374Z,21.30
2019-03-18T17:48:50.344Z,20.10
2019-03-18T17:51:18.308Z,22.02
2019-03-18T17:53:46.895Z,19.52
2019-03-18T17:56:15.079Z,22.80
2019-03-18T17:58:43.033Z,21.02
2019-03-18T18:01:11.920Z,20.60
2019-03-18T18:03:39.696Z,20.92
2019-03-18T18:06:07.756Z,19.40
2019-03-18T18:08:35.837Z,19.20
2019-03-18T18:11:04.314Z,18.40
2019-03-18T18:13:32.286Z,19.87
2019-03-18T18:16:00.449Z,20.62
2019-03-18T18:18:28.735Z,20.55
2019-03-18T18:20:56.700Z,21.33
2019-03-18T18:23:24.982Z,21.20
2019-03-18T18:25:53.965Z,21.15
2019-03-18T18:28:22.141Z,20.37
2019-03-18T18:30:50.108Z,21.87
2019-03-18T18:33:18.487Z,19.67
2019-03-18T18:35:46.762Z,18.50
2019-03-18T18:38:15.139Z,17.85
2019-03-18T18:40:43.108Z,17.35
2019-03-18T18:43:11.106Z,17.90
2019-03-18T18:45:39.251Z,17.17
2019-03-18T18:48:07.329Z,17.67
2019-03-18T18:50:35.394Z,16.25
2019-03-18T18:53:03.977Z,17.15
2019-03-18T18:55:31.737Z,21.42
2019-03-18T18:58:01.558Z,21.10
2019-03-18T19:00:29.211Z,18.92
2019-03-18T19:02:57.702Z,17.35
2019-03-18T19:05:29.552Z,20.30
2019-03-18T19:07:57.864Z,17.95
2019-03-18T19:10:26.109Z,17.82
2019-03-18T19:12:54.171Z,19.07
2019-03-18T19:15:30.642Z,18.07
2019-03-18T19:17:58.409Z,19.80
2019-03-18T19:20:26.482Z,19.23
2019-03-18T19:22:54.545Z,19.55
2019-03-18T19:25:22.520Z,19.98
2019-03-18T19:27:50.493Z,21.75
2019-03-18T19:30:19.686Z,20.97
2019-03-18T19:32:47.388Z,22.80
2019-03-18T19:35:16.029Z,23.45
2019-03-18T19:37:44.696Z,21.97
2019-03-18T19:40:19.963Z,21.95
2019-03-18T19:42:47.916Z,21.77
2019-03-18T19:45:16.091Z,23.05
2019-03-18T19:47:44.374Z,23.62
2019-03-18T19:50:18.902Z,24.72
2019-03-18T19:52:46.652Z,26.68
2019-03-18T19:55:15.042Z,25.25
2019-03-18T19:57:43.005Z,26.68
2019-03-18T20:00:18.001Z,26.93
2019-03-18T20:02:46.419Z,25.60
2019-03-18T20:05:15.277Z,25.43
2019-03-18T20:07:44.001Z,26.95
2019-03-18T20:10:14.313Z,26.60
2019-03-18T20:12:41.867Z,25.60
2019-03-18T20:15:14.054Z,24.72
2019-03-18T20:17:41.544Z,24.05
2019-03-18T20:20:13.965Z,23.70
2019-03-18T20:22:41.944Z,25.30
2019-03-18T20:25:11.143Z,27.13
2019-03-18T20:27:38.796Z,27.35
2019-03-18T20:30:20.693Z,26.80
2019-03-18T20:32:48.657Z,26.65
2019-03-18T20:35:20.927Z,27.05
2019-03-18T20:40:18.712Z,26.20
2019-03-18T20:42:46.573Z,25.45
2019-03-18T20:45:17.003Z,24.85
2019-03-18T20:47:44.558Z,20.65
2019-03-18T20:50:17.234Z,23.02
2019-03-18T20:52:44.797Z,21.55
2019-03-18T20:55:14.605Z,21.57
2019-03-18T20:57:42.579Z,20.62
2019-03-18T21:00:16.587Z,21.90
2019-03-18T21:02:44.863Z,23.30
2019-03-18T21:05:12.625Z,22.50
2019-03-18T21:07:40.604Z,21.68
2019-03-18T21:10:10.718Z,21.17
2019-03-18T21:12:38.170Z,20.57
2019-03-18T21:15:08.288Z,19.92
2019-03-18T21:17:36.158Z,21.45
2019-03-18T21:20:10.474Z,21.73
2019-03-18T21:22:38.337Z,22.42
2019-03-18T21:25:07.232Z,22.15
2019-03-18T21:27:35.304Z,21.15
2019-03-18T21:30:11.769Z,22.67
2019-03-18T21:32:39.839Z,22.98
2019-03-18T21:35:08.728Z,22.35
2019-03-18T21:37:36.392Z,20.90
2019-03-18T21:40:07.948Z,21.60
2019-03-18T21:42:35.702Z,19.25
2019-03-18T21:45:06.747Z,21.65
2019-03-18T21:47:34.720Z,22.90
2019-03-18T21:50:05.144Z,22.22
2019-03-18T21:52:32.802Z,22.90
2019-03-18T21:55:01.181Z,23.22
2019-03-18T21:57:29.146Z,22.55
2019-03-18T21:59:57.613Z,19.92
2019-03-18T22:02:26.115Z,21.40
2019-03-18T22:04:54.180Z,20.85
2019-03-18T22:07:22.255Z,22.35
2019-03-18T22:09:50.223Z,22.00
2019-03-18T22:12:18.191Z,23.20
2019-03-18T22:14:46.365Z,22.60
2019-03-18T22:17:14.335Z,22.40
2019-03-18T22:19:43.022Z,20.62
2019-03-18T22:22:10.986Z,19.48
2019-03-18T22:24:45.383Z,19.27
2019-03-18T22:27:08.764Z,18.48
2019-03-18T22:29:36.631Z,17.05
2019-03-18T22:32:04.605Z,16.05
2019-03-18T22:34:32.466Z,16.97
2019-03-18T22:37:00.539Z,17.12
2019-03-18T22:39:28.607Z,18.00
2019-03-18T22:41:56.577Z,17.57
2019-03-18T22:44:24.644Z,16.67
2019-03-18T22:46:52.819Z,18.27
2019-03-18T22:49:20.894Z,18.27
2019-03-18T22:51:48.961Z,17.73
2019-03-18T22:54:17.448Z,17.32
2019-03-18T22:56:45.310Z,16.25
2019-03-18T22:59:13.277Z,14.63
2019-03-18T23:01:42.065Z,13.98
2019-03-18T23:04:10.141Z,13.38
2019-03-18T23:06:38.104Z,13.50
2019-03-18T23:09:06.075Z,14.95
2019-03-18T23:11:34.040Z,14.78
2019-03-18T23:14:02.016Z,14.98
2019-03-18T23:16:29.980Z,14.00
2019-03-18T23:18:57.847Z,13.08
2019-03-18T23:21:25.603Z,13.78
2019-03-18T23:23:53.478Z,12.37
2019-03-18T23:26:21.444Z,13.95
2019-03-18T23:28:49.310Z,12.60
2019-03-18T23:31:17.178Z,12.07
2019-03-18T23:33:45.143Z,12.23
2019-03-18T23:36:13.216Z,12.98
2019-03-18T23:38:41.182Z,12.55
2019-03-18T23:41:09.052Z,12.88
2019-03-18T23:43:36.815Z,12.70
2019-03-18T23:46:04.579Z,13.75
2019-03-18T23:48:33.365Z,15.03
2019-03-18T23:51:01.437Z,13.62
2019-03-18T23:53:30.118Z,12.95
2019-03-18T23:55:58.190Z,14.28
2019-03-18T23:58:26.064Z,13.98
